createdAt,value
2023-04-15T00:01:08.074Z,11.60
2023-04-15T00:03:35.529Z,11.50
2023-04-15T00:06:02.486Z,11.50
2023-04-15T00:08:30.129Z,11.50
2023-04-15T00:10:56.936Z,11.50
2023-04-15T00:13:23.692Z,11.50
2023-04-15T00:15:50.442Z,12.30
2023-04-15T00:18:17.234Z,11.40
2023-04-15T00:20:43.912Z,11.40
2023-04-15T00:23:10.601Z,11.30
2023-04-15T00:25:37.314Z,11.30
2023-04-15T00:28:04.212Z,11.20
2023-04-15T00:30:31.507Z,11.20
2023-04-15T00:32:58.528Z,11.20
2023-04-15T00:35:25.402Z,11.30
2023-04-15T00:37:52.132Z,11.30
2023-04-15T00:40:20.812Z,11.20
2023-04-15T00:42:48.057Z,11.40
2023-04-15T00:45:15.612Z,11.30
2023-04-15T00:47:43.385Z,11.30
2023-04-15T00:50:11.082Z,11.20
2023-04-15T00:52:39.077Z,11.30
2023-04-15T00:55:06.790Z,11.30
2023-04-15T00:57:34.127Z,11.30
2023-04-15T01:00:01.656Z,11.20
2023-04-15T01:02:28.904Z,11.20
2023-04-15T01:04:56.732Z,11.20
2023-04-15T01:07:23.789Z,11.10
2023-04-15T01:09:51.163Z,11.10
2023-04-15T01:12:19.551Z,11.10
2023-04-15T01:14:46.543Z,11.00
2023-04-15T01:17:13.734Z,11.90
2023-04-15T01:19:41.482Z,10.90
2023-04-15T01:22:08.410Z,10.90
2023-04-15T01:24:38.558Z,10.90
2023-04-15T01:27:05.595Z,10.80
2023-04-15T01:29:35.780Z,10.80
2023-04-15T01:32:02.557Z,10.80
2023-04-15T01:34:29.428Z,10.70
2023-04-15T01:36:56.176Z,10.70
2023-04-15T01:39:23.447Z,10.70
2023-04-15T01:41:50.131Z,10.70
2023-04-15T01:44:16.963Z,10.60
2023-04-15T01:46:43.724Z,10.50
2023-04-15T01:49:10.650Z,10.60
2023-04-15T01:51:37.421Z,10.40
2023-04-15T01:54:04.167Z,10.70
2023-04-15T01:56:30.898Z,10.60
2023-04-15T01:58:57.694Z,10.50
2023-04-15T02:01:24.875Z,10.50
2023-04-15T02:03:52.190Z,10.50
2023-04-15T02:06:19.289Z,10.40
2023-04-15T02:08:45.969Z,10.40
2023-04-15T02:11:12.662Z,10.50
2023-04-15T02:13:39.407Z,10.50
2023-04-15T02:16:19.106Z,10.40
2023-04-15T02:18:47.407Z,10.40
2023-04-15T02:21:14.440Z,10.30
2023-04-15T02:23:41.503Z,10.30
2023-04-15T02:26:08.284Z,10.50
2023-04-15T02:28:35.797Z,10.50
2023-04-15T02:31:06.472Z,10.70
2023-04-15T02:33:33.405Z,10.90
2023-04-15T02:36:01.082Z,10.90
2023-04-15T02:38:28.591Z,11.00
2023-04-15T02:40:55.592Z,11.10
2023-04-15T02:43:22.439Z,12.00
2023-04-15T02:45:51.194Z,11.10
2023-04-15T02:48:19.696Z,11.20
2023-04-15T02:50:47.888Z,11.00
2023-04-15T02:53:16.101Z,10.80
2023-04-15T02:55:43.077Z,10.60
2023-04-15T02:58:10.012Z,10.60
2023-04-15T03:00:36.948Z,10.50
2023-04-15T03:03:05.625Z,10.40
2023-04-15T03:05:32.812Z,10.30
2023-04-15T03:08:01.360Z,10.20
2023-04-15T03:10:28.453Z,10.10
2023-04-15T03:12:55.134Z,10.00
2023-04-15T03:15:23.640Z,10.10
2023-04-15T03:17:52.619Z,10.00
2023-04-15T03:20:19.715Z,10.00
2023-04-15T03:22:47.812Z,10.10
2023-04-15T03:25:14.609Z,10.30
2023-04-15T03:27:42.022Z,10.40
2023-04-15T03:30:09.466Z,10.40
2023-04-15T03:32:38.473Z,10.50
2023-04-15T03:35:06.918Z,10.50
2023-04-15T03:37:33.584Z,10.50
2023-04-15T03:40:00.500Z,10.50
2023-04-15T03:42:27.274Z,10.40
2023-04-15T03:44:54.012Z,10.40
2023-04-15T03:47:20.973Z,10.30
2023-04-15T03:49:47.758Z,10.10
2023-04-15T03:52:14.488Z,9.90
2023-04-15T03:54:41.345Z,9.80
2023-04-15T03:57:08.081Z,9.70
2023-04-15T03:59:34.721Z,9.60
2023-04-15T04:02:01.524Z,9.50
2023-04-15T04:04:28.430Z,9.50
2023-04-15T04:06:55.418Z,9.40
2023-04-15T04:09:22.196Z,9.40
2023-04-15T04:11:48.913Z,9.40
2023-04-15T04:14:15.689Z,9.30
2023-04-15T04:16:42.380Z,9.30
2023-04-15T04:19:09.098Z,9.30
2023-04-15T04:21:36.521Z,9.20
2023-04-15T04:24:03.360Z,9.30
2023-04-15T04:26:30.059Z,9.30
2023-04-15T04:28:56.712Z,9.20
2023-04-15T04:31:23.457Z,9.20
2023-04-15T04:33:50.466Z,9.20
2023-04-15T04:36:17.234Z,9.20
2023-04-15T04:38:44.031Z,9.10
2023-04-15T04:41:10.864Z,9.10
2023-04-15T04:43:37.657Z,9.10
2023-04-15T04:46:04.446Z,9.20
2023-04-15T04:48:31.251Z,9.10
2023-04-15T04:50:58.097Z,9.10
2023-04-15T04:53:24.891Z,9.10
2023-04-15T04:55:51.933Z,9.00
2023-04-15T04:58:18.555Z,9.10
2023-04-15T05:00:45.865Z,9.00
2023-04-15T05:03:12.821Z,9.10
2023-04-15T05:05:41.086Z,9.10
2023-04-15T05:08:07.950Z,9.00
2023-04-15T05:10:34.674Z,9.00
2023-04-15T05:13:01.443Z,9.00
2023-04-15T05:15:28.149Z,9.10
2023-04-15T05:17:55.201Z,9.10
2023-04-15T05:20:22.447Z,9.20
2023-04-15T05:22:49.155Z,9.20
2023-04-15T05:25:16.450Z,9.20
2023-04-15T05:27:43.253Z,9.20
2023-04-15T05:30:12.095Z,9.20
2023-04-15T05:32:41.738Z,9.20
2023-04-15T05:35:08.592Z,9.30
2023-04-15T05:37:36.111Z,9.40
2023-04-15T05:40:04.312Z,9.40
2023-04-15T05:42:31.432Z,9.40
2023-04-15T05:44:58.245Z,9.50
2023-04-15T05:47:25.011Z,9.60
2023-04-15T05:49:51.722Z,9.80
2023-04-15T05:52:18.396Z,10.10
2023-04-15T05:54:45.080Z,10.20
2023-04-15T05:57:12.007Z,10.30
2023-04-15T05:59:38.899Z,10.40
2023-04-15T06:02:06.212Z,10.60
2023-04-15T06:04:33.064Z,10.50
2023-04-15T06:06:59.817Z,10.50
2023-04-15T06:09:26.580Z,10.60
2023-04-15T06:11:53.495Z,10.40
2023-04-15T06:14:20.270Z,10.40
2023-04-15T06:16:47.037Z,10.50
2023-04-15T06:19:14.255Z,10.50
2023-04-15T06:21:41.104Z,10.50
2023-04-15T06:24:07.835Z,10.40
2023-04-15T06:26:34.558Z,10.60
2023-04-15T06:29:01.475Z,10.60
2023-04-15T06:31:28.461Z,10.60
2023-04-15T06:33:55.357Z,10.70
2023-04-15T06:36:22.049Z,10.70
2023-04-15T06:38:48.668Z,10.80
2023-04-15T06:41:15.784Z,10.90
2023-04-15T06:43:42.488Z,10.90
2023-04-15T06:46:09.293Z,11.10
2023-04-15T06:48:36.124Z,11.20
2023-04-15T06:51:04.035Z,11.40
2023-04-15T06:53:30.841Z,11.50
2023-04-15T06:55:57.482Z,11.70
2023-04-15T06:58:24.369Z,11.80
2023-04-15T07:00:51.094Z,12.00
2023-04-15T07:03:18.331Z,12.10
2023-04-15T07:05:45.014Z,12.20
2023-04-15T07:08:12.288Z,12.30
2023-04-15T07:10:38.952Z,12.30
2023-04-15T07:13:06.987Z,12.40
2023-04-15T07:15:33.765Z,12.50
2023-04-15T07:18:00.880Z,12.50
2023-04-15T07:20:27.549Z,12.90
2023-04-15T07:22:54.767Z,12.50
2023-04-15T07:25:21.518Z,12.50
2023-04-15T07:27:48.404Z,12.60
2023-04-15T07:30:15.149Z,12.50
2023-04-15T07:32:42.795Z,12.50
2023-04-15T07:35:09.764Z,12.60
2023-04-15T07:37:36.493Z,12.70
2023-04-15T07:40:04.916Z,12.90
2023-04-15T07:42:31.698Z,13.10
2023-04-15T07:44:58.450Z,13.20
2023-04-15T07:47:25.759Z,13.20
2023-04-15T07:49:52.810Z,13.20
2023-04-15T07:52:19.781Z,13.50
2023-04-15T07:54:46.825Z,13.40
2023-04-15T07:57:13.592Z,13.50
2023-04-15T07:59:40.443Z,13.40
2023-04-15T08:02:08.437Z,13.60
2023-04-15T08:04:35.400Z,13.70
2023-04-15T08:07:02.959Z,13.70
2023-04-15T08:09:29.770Z,13.70
2023-04-15T08:11:56.964Z,13.60
2023-04-15T08:14:24.572Z,13.70
2023-04-15T08:16:51.508Z,13.70
2023-04-15T08:19:18.262Z,13.70
2023-04-15T08:21:44.979Z,13.90
2023-04-15T08:24:12.216Z,14.00
2023-04-15T08:26:38.956Z,14.00
2023-04-15T08:29:05.681Z,14.00
2023-04-15T08:31:32.430Z,14.00
2023-04-15T08:33:59.510Z,14.20
2023-04-15T08:36:27.086Z,14.10
2023-04-15T08:38:53.813Z,14.10
2023-04-15T08:41:24.599Z,14.10
2023-04-15T08:43:57.360Z,14.10
2023-04-15T08:46:24.452Z,14.20
2023-04-15T08:48:52.293Z,14.00
2023-04-15T08:51:19.483Z,14.00
2023-04-15T08:53:47.532Z,13.90
2023-04-15T08:56:16.729Z,14.10
2023-04-15T08:58:47.048Z,14.00
2023-04-15T09:01:13.984Z,14.00
2023-04-15T09:03:41.724Z,14.00
2023-04-15T09:06:08.932Z,14.10
2023-04-15T09:08:35.817Z,14.20
2023-04-15T09:11:03.424Z,14.20
2023-04-15T09:13:30.592Z,14.40
2023-04-15T09:15:58.397Z,14.50
2023-04-15T09:18:32.649Z,14.80
2023-04-15T09:21:14.011Z,14.80
2023-04-15T09:23:54.405Z,15.00
2023-04-15T09:26:31.493Z,15.00
2023-04-15T09:29:09.365Z,14.90
2023-04-15T09:31:37.098Z,15.00
2023-04-15T09:34:04.262Z,15.00
2023-04-15T09:36:58.933Z,15.00
2023-04-15T09:39:25.636Z,14.80
2023-04-15T09:42:08.397Z,14.80
2023-04-15T09:44:35.460Z,14.70
2023-04-15T09:47:02.317Z,14.70
2023-04-15T09:49:29.348Z,14.60
2023-04-15T09:52:05.777Z,14.80
2023-04-15T09:54:35.008Z,14.90
2023-04-15T09:57:06.381Z,14.90
2023-04-15T09:59:33.134Z,14.90
2023-04-15T10:02:00.334Z,15.10
2023-04-15T10:04:28.667Z,15.30
2023-04-15T10:06:55.984Z,15.40
2023-04-15T10:09:22.903Z,15.70
2023-04-15T10:11:50.294Z,15.70
2023-04-15T10:14:18.923Z,15.90
2023-04-15T10:16:48.932Z,16.00
2023-04-15T10:19:18.880Z,16.00
2023-04-15T10:21:46.348Z,16.10
2023-04-15T10:24:13.384Z,16.00
2023-04-15T10:26:40.516Z,16.10
2023-04-15T10:29:07.904Z,16.10
2023-04-15T10:31:38.112Z,16.00
2023-04-15T10:34:06.499Z,16.30
2023-04-15T10:36:33.923Z,16.40
2023-04-15T10:39:01.353Z,16.60
2023-04-15T10:41:34.429Z,16.70
2023-04-15T10:44:05.364Z,16.80
2023-04-15T10:46:40.513Z,16.90
2023-04-15T10:49:15.553Z,16.90
2023-04-15T10:51:44.828Z,16.80
2023-04-15T10:54:39.508Z,16.80
2023-04-15T10:57:06.530Z,16.50
2023-04-15T10:59:37.609Z,16.30
2023-04-15T11:02:07.278Z,16.30
2023-04-15T11:05:00.210Z,16.20
2023-04-15T11:07:39.365Z,16.30
2023-04-15T11:10:32.209Z,16.30
2023-04-15T11:13:04.033Z,16.30
2023-04-15T11:15:47.330Z,16.30
2023-04-15T11:18:16.742Z,16.30
2023-04-15T11:20:51.216Z,16.20
2023-04-15T11:23:35.677Z,16.30
2023-04-15T11:26:06.755Z,16.70
2023-04-15T11:28:33.794Z,16.80
2023-04-15T11:31:07.307Z,16.90
2023-04-15T11:33:34.059Z,17.50
2023-04-15T11:36:01.526Z,17.80
2023-04-15T11:38:28.414Z,17.80
2023-04-15T11:40:55.450Z,17.90
2023-04-15T11:43:23.519Z,18.60
2023-04-15T11:45:54.474Z,18.70
2023-04-15T11:48:23.391Z,17.80
2023-04-15T11:50:55.284Z,17.40
2023-04-15T11:53:22.784Z,17.00
2023-04-15T11:55:51.041Z,17.10
2023-04-15T11:58:20.189Z,17.30
2023-04-15T12:00:58.733Z,17.20
2023-04-15T12:03:30.319Z,16.90
2023-04-15T12:06:14.852Z,17.00
2023-04-15T12:09:06.819Z,17.10
2023-04-15T12:11:47.926Z,17.10
2023-04-15T12:14:24.381Z,17.30
2023-04-15T12:16:58.413Z,17.30
2023-04-15T12:19:29.414Z,17.20
2023-04-15T12:22:01.634Z,17.40
2023-04-15T12:24:30.933Z,17.50
2023-04-15T12:27:01.762Z,17.30
2023-04-15T12:29:30.125Z,17.40
2023-04-15T12:32:20.772Z,17.30
2023-04-15T12:34:52.283Z,17.20
2023-04-15T12:37:19.506Z,17.50
2023-04-15T12:39:49.271Z,17.40
2023-04-15T12:42:17.642Z,17.40
2023-04-15T12:44:44.809Z,17.50
2023-04-15T12:47:12.214Z,17.60
2023-04-15T12:49:39.439Z,17.60
2023-04-15T12:52:06.577Z,17.60
2023-04-15T12:54:33.396Z,17.60
2023-04-15T12:57:00.923Z,17.40
2023-04-15T12:59:28.109Z,17.70
2023-04-15T13:01:54.975Z,17.50
2023-04-15T13:04:22.428Z,17.50
2023-04-15T13:06:49.544Z,17.40
2023-04-15T13:09:16.254Z,17.40
2023-04-15T13:11:43.046Z,17.20
2023-04-15T13:14:13.448Z,17.00
2023-04-15T13:16:40.924Z,16.80
2023-04-15T13:19:07.841Z,16.50
2023-04-15T13:21:35.935Z,16.50
2023-04-15T13:24:03.844Z,16.30
2023-04-15T13:26:31.651Z,16.20
2023-04-15T13:28:58.394Z,16.70
2023-04-15T13:31:25.444Z,15.90
2023-04-15T13:33:52.144Z,15.90
2023-04-15T13:36:19.235Z,16.00
2023-04-15T13:38:46.752Z,16.10
2023-04-15T13:41:14.209Z,16.10
2023-04-15T13:43:41.449Z,16.10
2023-04-15T13:46:08.390Z,16.10
2023-04-15T13:48:35.374Z,16.40
2023-04-15T13:51:02.054Z,16.40
2023-04-15T13:53:38.306Z,16.20
2023-04-15T13:56:09.586Z,16.10
2023-04-15T13:58:37.390Z,16.10
2023-04-15T14:01:06.107Z,15.90
2023-04-15T14:03:34.799Z,15.80
2023-04-15T14:06:01.863Z,15.80
2023-04-15T14:08:29.835Z,15.80
2023-04-15T14:10:57.572Z,15.70
2023-04-15T14:13:24.454Z,15.70
2023-04-15T14:15:51.272Z,15.70
2023-04-15T14:18:17.972Z,15.60
2023-04-15T14:20:45.774Z,15.40
2023-04-15T14:23:12.476Z,15.30
2023-04-15T14:25:39.425Z,15.20
2023-04-15T14:28:06.266Z,15.00
2023-04-15T14:30:33.203Z,14.60
2023-04-15T14:33:00.063Z,15.20
2023-04-15T14:35:27.388Z,14.80
2023-04-15T14:37:54.471Z,15.20
2023-04-15T14:40:21.409Z,14.60
2023-04-15T14:42:48.282Z,14.50
2023-04-15T14:45:15.076Z,14.40
2023-04-15T14:47:41.949Z,14.60
2023-04-15T14:50:09.189Z,14.50
2023-04-15T14:52:38.924Z,14.50
2023-04-15T14:55:10.473Z,14.60
2023-04-15T14:57:41.544Z,14.70
2023-04-15T15:00:09.938Z,14.50
2023-04-15T15:02:40.262Z,14.50
2023-04-15T15:05:08.598Z,14.30
2023-04-15T15:07:37.160Z,14.10
2023-04-15T15:10:04.513Z,14.00
2023-04-15T15:12:31.594Z,14.10
2023-04-15T15:14:58.260Z,13.90
2023-04-15T15:17:25.081Z,14.00
2023-04-15T15:19:51.835Z,14.00
2023-04-15T15:22:20.842Z,14.10
2023-04-15T15:24:48.092Z,13.90
2023-04-15T15:27:14.836Z,14.40
2023-04-15T15:29:41.561Z,13.70
2023-04-15T15:32:08.286Z,13.70
2023-04-15T15:34:34.940Z,13.70
2023-04-15T15:37:01.795Z,13.70
2023-04-15T15:39:28.451Z,13.70
2023-04-15T15:41:55.321Z,13.80
2023-04-15T15:44:21.995Z,13.80
2023-04-15T15:46:50.070Z,13.70
2023-04-15T15:49:16.791Z,13.60
2023-04-15T15:51:43.467Z,13.50
2023-04-15T15:54:10.449Z,13.50
2023-04-15T15:56:39.250Z,13.40
2023-04-15T15:59:06.233Z,13.40
2023-04-15T16:01:33.202Z,13.30
2023-04-15T16:04:00.792Z,13.30
2023-04-15T16:06:28.182Z,13.40
2023-04-15T16:08:54.924Z,13.40
2023-04-15T16:11:21.581Z,13.30
2023-04-15T16:13:48.261Z,13.20
2023-04-15T16:16:15.207Z,13.10
2023-04-15T16:18:41.988Z,13.10
2023-04-15T16:21:08.763Z,13.00
2023-04-15T16:23:36.754Z,12.90
2023-04-15T16:26:03.563Z,12.80
2023-04-15T16:28:30.192Z,12.80
2023-04-15T16:30:57.191Z,12.90
2023-04-15T16:33:24.014Z,12.80
2023-04-15T16:35:51.508Z,12.90
2023-04-15T16:38:18.227Z,12.90
2023-04-15T16:40:44.941Z,12.90
2023-04-15T16:43:11.656Z,12.80
2023-04-15T16:45:38.537Z,12.70
2023-04-15T16:48:05.753Z,12.80
2023-04-15T16:50:32.552Z,12.70
2023-04-15T16:52:59.316Z,12.60
2023-04-15T16:55:26.161Z,12.60
2023-04-15T16:58:00.908Z,12.60
2023-04-15T17:00:29.772Z,12.50
2023-04-15T17:02:56.543Z,12.50
2023-04-15T17:05:23.403Z,12.60
2023-04-15T17:07:50.300Z,12.60
2023-04-15T17:10:17.044Z,12.60
2023-04-15T17:12:43.770Z,12.50
2023-04-15T17:15:10.592Z,12.40
2023-04-15T17:17:37.321Z,12.30
2023-04-15T17:20:04.254Z,12.30
2023-04-15T17:22:31.174Z,12.30
2023-04-15T17:24:57.805Z,12.20
2023-04-15T17:27:26.403Z,12.20
2023-04-15T17:29:53.178Z,12.10
2023-04-15T17:32:20.192Z,12.20
2023-04-15T17:34:50.118Z,12.30
2023-04-15T17:37:18.245Z,12.10
2023-04-15T17:39:45.592Z,12.10
2023-04-15T17:42:13.085Z,12.10
2023-04-15T17:44:39.954Z,12.10
2023-04-15T17:47:07.216Z,12.10
2023-04-15T17:49:34.298Z,12.10
2023-04-15T17:52:01.248Z,12.10
2023-04-15T17:54:28.142Z,12.10
2023-04-15T17:56:56.517Z,12.10
2023-04-15T17:59:23.455Z,12.00
2023-04-15T18:01:50.428Z,11.90
2023-04-15T18:04:17.359Z,12.00
2023-04-15T18:06:44.152Z,12.00
2023-04-15T18:09:11.286Z,12.00
2023-04-15T18:11:39.949Z,11.90
2023-04-15T18:14:06.929Z,12.00
2023-04-15T18:16:34.010Z,12.00
2023-04-15T18:19:01.067Z,11.90
2023-04-15T18:21:27.910Z,11.90
2023-04-15T18:23:54.613Z,11.90
2023-04-15T18:26:21.953Z,11.90
2023-04-15T18:28:48.698Z,11.90
2023-04-15T18:31:15.598Z,11.90
2023-04-15T18:33:42.385Z,11.90
2023-04-15T18:36:10.552Z,11.90
2023-04-15T18:38:37.274Z,11.10
2023-04-15T18:41:05.432Z,11.80
2023-04-15T18:43:32.433Z,11.90
2023-04-15T18:45:59.852Z,11.80
2023-04-15T18:48:26.966Z,11.80
2023-04-15T18:50:54.067Z,11.80
2023-04-15T18:53:21.397Z,11.80
2023-04-15T18:55:48.153Z,11.70
2023-04-15T18:58:14.878Z,11.70
2023-04-15T19:00:43.745Z,11.70
2023-04-15T19:03:11.405Z,11.60
2023-04-15T19:05:38.530Z,11.60
2023-04-15T19:08:05.474Z,11.60
2023-04-15T19:10:33.754Z,11.60
2023-04-15T19:13:00.437Z,11.60
2023-04-15T19:15:27.246Z,11.60
2023-04-15T19:17:54.378Z,11.60
2023-04-15T19:20:21.135Z,11.60
2023-04-15T19:22:48.196Z,11.60
2023-04-15T19:25:14.902Z,11.60
2023-04-15T19:27:41.588Z,11.50
2023-04-15T19:30:08.884Z,11.50
2023-04-15T19:32:35.953Z,11.60
2023-04-15T19:35:02.704Z,11.60
2023-04-15T19:37:29.473Z,11.50
2023-04-15T19:39:56.459Z,11.60
2023-04-15T19:42:23.127Z,11.60
2023-04-15T19:44:49.811Z,11.50
2023-04-15T19:47:16.720Z,11.50
2023-04-15T19:49:43.760Z,11.50
2023-04-15T19:52:10.472Z,11.50
2023-04-15T19:54:37.209Z,11.60
2023-04-15T19:57:04.021Z,11.50
2023-04-15T19:59:30.703Z,11.60
2023-04-15T20:01:57.612Z,11.60
2023-04-15T20:04:24.435Z,11.60
2023-04-15T20:06:51.179Z,11.60
2023-04-15T20:09:17.843Z,11.60
2023-04-15T20:12:05.984Z,11.60
2023-04-15T20:14:31.237Z,11.60
2023-04-15T20:16:57.949Z,11.70
2023-04-15T20:19:24.734Z,12.30
2023-04-15T20:21:52.688Z,11.60
2023-04-15T20:24:21.317Z,11.60
2023-04-15T20:26:47.985Z,11.60
2023-04-15T20:29:14.772Z,11.70
2023-04-15T20:31:41.529Z,11.70
2023-04-15T20:34:11.363Z,11.60
2023-04-15T20:36:38.806Z,11.60
2023-04-15T20:39:05.625Z,11.70
2023-04-15T20:41:32.511Z,12.50
2023-04-15T20:43:59.224Z,11.70
2023-04-15T20:46:27.711Z,11.70
2023-04-15T20:48:55.572Z,11.70
2023-04-15T20:51:22.307Z,11.70
2023-04-15T20:53:49.567Z,11.70
2023-04-15T20:56:16.192Z,11.70
2023-04-15T20:58:42.912Z,11.70
2023-04-15T21:01:09.773Z,11.70
2023-04-15T21:03:36.711Z,11.70
2023-04-15T21:06:03.652Z,11.70
2023-04-15T21:08:31.450Z,11.70
2023-04-15T21:10:58.426Z,11.60
2023-04-15T21:13:25.216Z,11.90
2023-04-15T21:15:53.990Z,11.70
2023-04-15T21:18:21.606Z,11.60
2023-04-15T21:20:59.683Z,11.70
2023-04-15T21:23:35.787Z,11.60
2023-04-15T21:26:02.880Z,11.60
2023-04-15T21:28:29.832Z,11.60
2023-04-15T21:30:59.413Z,11.60
2023-04-15T21:33:27.026Z,11.60
2023-04-15T21:35:54.436Z,11.60
2023-04-15T21:38:23.231Z,11.50
2023-04-15T21:40:51.113Z,11.60
2023-04-15T21:43:17.844Z,11.40
2023-04-15T21:46:21.143Z,11.60
2023-04-15T21:48:31.632Z,11.60
2023-04-15T21:50:59.647Z,11.60
2023-04-15T21:53:26.684Z,11.60
2023-04-15T21:55:53.805Z,11.60
2023-04-15T21:58:20.664Z,11.70
2023-04-15T22:00:47.628Z,11.60
2023-04-15T22:03:14.519Z,11.70
2023-04-15T22:05:46.640Z,11.70
2023-04-15T22:08:13.385Z,11.70
2023-04-15T22:10:40.398Z,11.80
2023-04-15T22:13:10.848Z,11.80
2023-04-15T22:15:37.882Z,11.80
2023-04-15T22:18:05.404Z,12.30
2023-04-15T22:20:32.233Z,11.80
2023-04-15T22:22:59.023Z,11.90
2023-04-15T22:25:25.754Z,11.90
2023-04-15T22:27:52.412Z,11.80
2023-04-15T22:30:19.150Z,11.90
2023-04-15T22:32:46.044Z,11.90
2023-04-15T22:35:12.807Z,11.90
2023-04-15T22:37:39.548Z,11.70
2023-04-15T22:40:06.811Z,11.80
2023-04-15T22:42:33.693Z,11.80
2023-04-15T22:45:00.591Z,11.70
2023-04-15T22:47:27.368Z,11.70
2023-04-15T22:49:54.143Z,11.70
2023-04-15T22:52:30.029Z,11.60
2023-04-15T22:54:57.707Z,11.60
2023-04-15T22:57:24.425Z,11.70
2023-04-15T22:59:51.362Z,11.70
2023-04-15T23:02:18.196Z,11.60
2023-04-15T23:04:45.363Z,11.80
2023-04-15T23:07:12.131Z,11.70
2023-04-15T23:09:39.460Z,11.80
2023-04-15T23:12:06.809Z,11.60
2023-04-15T23:14:35.625Z,11.60
2023-04-15T23:17:02.324Z,11.70
2023-04-15T23:19:29.031Z,11.70
2023-04-15T23:21:55.753Z,11.70
2023-04-15T23:24:22.563Z,11.60
2023-04-15T23:26:49.296Z,11.70
2023-04-15T23:29:16.164Z,11.70
2023-04-15T23:31:42.949Z,11.70
2023-04-15T23:34:09.856Z,11.70
2023-04-15T23:36:36.808Z,11.80
2023-04-15T23:39:03.505Z,11.70
2023-04-15T23:41:30.194Z,11.80
2023-04-15T23:43:56.912Z,11.80
2023-04-15T23:46:23.662Z,11.90
2023-04-15T23:48:50.409Z,11.70
2023-04-15T23:51:17.108Z,11.70
2023-04-15T23:53:43.828Z,11.80
2023-04-15T23:56:11.045Z,11.70
2023-04-15T23:58:37.838Z,11.80
